Time;durP1;ratioP1;P1;durP2;ratioP2;P2;SDS_P1;SDS_P2;PMS_P1;PMS_P2;Temp;Humidity;BMP_temperature;BMP_pressure;BME280_temperature;BME280_humidity;BME280_pressure;Samples;Min_cycle;Max_cycle;Signal;HPM_P1;HPM_P2
2022/05/08 00:00:59;;;;;;;15.20;12.23;;;;;;;21.08;55.78;99171.59;1789177;79;25667;-91
2022/05/08 00:03:25;;;;;;;15.30;12.28;;;;;;;21.08;55.79;99171.59;1763603;80;25417;-89
2022/05/08 00:05:51;;;;;;;17.57;12.78;;;;;;;21.08;55.78;99169.63;1746518;82;26496;-89
2022/05/08 00:08:17;;;;;;;16.77;13.30;;;;;;;21.08;55.80;99165.45;1746560;82;25477;-90
2022/05/08 00:10:44;;;;;;;15.98;12.82;;;;;;;21.06;55.81;99165.00;1746440;82;27373;-90
2022/05/08 00:13:09;;;;;;;16.85;12.98;;;;;;;21.06;55.81;99165.82;1746351;82;25496;-89
2022/05/08 00:15:36;;;;;;;16.42;12.98;;;;;;;21.08;55.81;99163.23;1746561;82;25706;-89
2022/05/08 00:18:03;;;;;;;15.15;12.43;;;;;;;21.06;55.82;99158.04;1746348;82;25740;-90
2022/05/08 00:20:30;;;;;;;16.05;12.82;;;;;;;21.05;55.80;99149.48;1746472;82;25650;-89
2022/05/08 00:22:56;;;;;;;17.57;13.18;;;;;;;21.05;55.82;99155.05;1746545;82;28041;-90
2022/05/08 00:25:22;;;;;;;16.50;12.90;;;;;;;21.05;55.82;99149.48;1746387;82;25407;-90
2022/05/08 00:27:48;;;;;;;17.12;12.43;;;;;;;21.04;55.82;99145.09;1746579;82;25671;-89
2022/05/08 00:30:14;;;;;;;16.15;12.73;;;;;;;21.05;55.80;99147.50;1746443;82;26603;-90
2022/05/08 00:32:40;;;;;;;17.50;13.13;;;;;;;21.06;55.80;99146.89;1746539;82;25599;-90
2022/05/08 00:35:10;;;;;;;15.93;13.03;;;;;;;21.06;55.79;99143.53;1746375;82;27392;-90
2022/05/08 00:37:38;;;;;;;16.85;12.43;;;;;;;21.06;55.81;99146.31;1746703;82;26163;-88
2022/05/08 00:40:06;;;;;;;16.97;13.40;;;;;;;21.05;55.80;99143.91;1746380;82;25619;-88
2022/05/08 00:42:32;;;;;;;17.20;12.70;;;;;;;21.04;55.81;99146.48;1746352;82;25706;-90
2022/05/08 00:44:58;;;;;;;16.82;12.95;;;;;;;21.03;55.84;99142.06;1746502;82;25639;-91
2022/05/08 00:47:24;;;;;;;17.50;13.30;;;;;;;21.01;55.82;99146.62;1746416;82;27430;-91
2022/05/08 00:49:51;;;;;;;16.95;12.58;;;;;;;21.02;55.82;99143.25;1746185;82;25702;-90
2022/05/08 00:52:17;;;;;;;16.65;13.08;;;;;;;21.00;55.84;99142.23;1746448;82;25482;-90
2022/05/08 00:54:44;;;;;;;14.93;12.40;;;;;;;20.99;55.84;99142.61;1746486;82;25627;-91
2022/05/08 00:57:10;;;;;;;16.42;12.93;;;;;;;;;;1746478;82;25608;-90
2022/05/08 00:59:37;;;;;;;19.30;13.38;;;;;;;21.00;55.84;99138.63;1746441;82;27407;-90
2022/05/08 01:02:03;;;;;;;15.53;12.40;;;;;;;20.99;55.87;99137.03;1746462;82;25410;-90
2022/05/08 01:04:31;;;;;;;16.20;12.78;;;;;;;20.99;55.87;99137.03;1769591;79;25438;-90
2022/05/08 01:06:57;;;;;;;16.75;13.45;;;;;;;20.99;55.86;99135.64;1772669;80;25860;-90
2022/05/08 01:09:23;;;;;;;17.35;13.08;;;;;;;20.98;55.86;99139.61;1772489;80;25640;-91
2022/05/08 01:11:49;;;;;;;15.88;12.55;;;;;;;20.96;55.88;99144.16;1772688;81;27564;-91
2022/05/08 01:14:17;;;;;;;16.05;12.43;;;;;;;20.97;55.90;99136.59;1772540;80;25489;-90
2022/05/08 01:16:44;;;;;;;16.15;12.68;;;;;;;20.97;55.92;99137.41;1772356;81;25494;-90
2022/05/08 01:19:10;;;;;;;17.70;13.48;;;;;;;20.97;55.89;99130.44;1772228;80;25786;-91
2022/05/08 01:21:43;;;;;;;17.52;13.22;;;;;;;20.96;55.89;99137.20;1772621;81;25406;-89
2022/05/08 01:24:20;;;;;;;17.30;12.73;;;;;;;20.96;55.89;99139.98;1772636;80;28354;-88
2022/05/08 01:26:43;;;;;;;14.30;11.75;;;;;;;20.96;55.90;99137.78;1772359;80;25554;-89
2022/05/08 01:29:09;;;;;;;16.77;13.00;;;;;;;20.96;55.90;99137.78;1772708;81;25496;-88
2022/05/08 01:31:35;;;;;;;16.73;12.53;;;;;;;20.96;55.89;99138.59;1772562;81;25774;-88
2022/05/08 01:34:00;;;;;;;17.57;12.90;;;;;;;20.97;55.87;99137.98;1773193;80;25591;-90
2022/05/08 01:36:26;;;;;;;16.02;12.63;;;;;;;20.94;55.89;99138.16;1772729;81;28304;-88
2022/05/08 01:38:53;;;;;;;16.97;12.60;;;;;;;20.94;55.91;99142.33;1772671;81;25775;-88
2022/05/08 01:41:19;;;;;;;16.50;12.63;;;;;;;20.93;55.96;99145.70;1772770;80;25631;-88
2022/05/08 01:43:45;;;;;;;16.02;13.48;;;;;;;20.92;55.95;99142.70;1772652;81;26514;-88
2022/05/08 01:46:12;;;;;;;17.12;12.75;;;;;;;20.93;55.94;99143.52;1772735;80;25418;-87
2022/05/08 01:48:38;;;;;;;16.12;12.10;;;;;;;20.93;55.94;99144.91;1770285;81;27613;-88
2022/05/08 01:51:04;;;;;;;16.35;12.00;;;;;;;20.92;55.95;99142.70;1771453;80;25659;-88
2022/05/08 01:53:33;;;;;;;17.02;12.63;;;;;;;20.91;55.95;99145.28;1772645;81;25613;-88
2022/05/08 01:56:02;;;;;;;16.32;12.30;;;;;;;20.92;55.98;99148.27;1772638;80;25746;-88
2022/05/08 01:58:30;;;;;;;15.25;11.88;;;;;;;20.93;55.93;99145.70;1772492;80;25594;-89
2022/05/08 02:00:58;;;;;;;16.70;12.88;;;;;;;20.93;55.93;99141.52;1772772;81;27362;-89
2022/05/08 02:03:25;;;;;;;16.97;12.40;;;;;;;20.92;55.93;99144.09;1772355;79;25842;-88
2022/05/08 02:05:52;;;;;;;18.20;13.13;;;;;;;20.92;55.93;99143.28;1772692;80;25394;-87
2022/05/08 02:08:18;;;;;;;15.15;12.25;;;;;;;20.91;55.98;99144.47;1772697;80;25925;-87
2022/05/08 02:10:44;;;;;;;16.50;12.68;;;;;;;20.90;55.94;99145.05;1772823;80;25390;-88
2022/05/08 02:13:11;;;;;;;15.43;12.03;;;;;;;20.91;55.93;99143.89;1772826;80;27408;-88
2022/05/08 02:15:39;;;;;;;16.65;12.78;;;;;;;20.90;55.96;99145.05;1772580;80;25621;-90
2022/05/08 02:18:08;;;;;;;15.28;12.50;;;;;;;20.89;55.97;99139.23;1772556;80;25423;-90
2022/05/08 02:20:36;;;;;;;17.25;12.50;;;;;;;20.90;55.96;99147.02;1772482;80;25782;-90
2022/05/08 02:23:03;;;;;;;14.47;12.05;;;;;;;20.89;55.97;99153.16;1772638;81;25585;-91
2022/05/08 02:25:32;;;;;;;17.32;13.00;;;;;;;20.89;55.97;99149.56;1772660;80;27397;-90
2022/05/08 02:28:00;;;;;;;15.60;12.37;;;;;;;20.87;55.98;99145.76;1772989;80;25755;-91
2022/05/08 02:30:26;;;;;;;17.25;12.90;;;;;;;20.88;55.98;99146.58;1772407;81;25441;-91
2022/05/08 02:32:54;;;;;;;16.55;12.60;;;;;;;20.88;55.98;99147.39;1772524;80;25730;-90
2022/05/08 02:35:21;;;;;;;14.90;12.28;;;;;;;20.88;55.97;99150.17;1772758;81;25652;-91
2022/05/08 02:37:53;;;;;;;17.73;13.48;;;;;;;20.87;55.99;99147.76;1772648;80;27360;-91
2022/05/08 02:40:20;;;;;;;17.90;12.88;;;;;;;20.88;56.02;99150.75;1772431;80;25616;-91
2022/05/08 02:42:46;;;;;;;16.23;12.60;;;;;;;20.88;56.03;99152.14;1772751;80;25439;-92
2022/05/08 02:45:13;;;;;;;16.32;12.73;;;;;;;20.87;56.00;99146.36;1772830;81;26248;-92
2022/05/08 02:47:41;;;;;;;16.50;12.53;;;;;;;20.87;56.02;99147.76;1772745;80;25655;-91
2022/05/08 02:50:12;;;;;;;16.27;12.73;;;;;;;20.86;56.00;99146.13;1772635;80;27362;-89
2022/05/08 02:52:42;;;;;;;15.78;12.45;;;;;;;20.86;56.03;99149.73;1772379;81;25596;-89
2022/05/08 03:00:47;;;;;;;16.80;12.43;;;;;;;20.81;56.07;99148.05;1772345;81;25582;-89
2022/05/08 03:03:11;;;;;;;15.45;11.48;;;;;;;20.79;56.08;99140.68;1773945;79;26991;-90
2022/05/08 03:05:43;;;;;;;16.40;12.93;;;;;;;20.80;56.08;99142.86;1789100;80;25945;-90
2022/05/08 03:08:09;;;;;;;14.40;12.13;;;;;;;20.78;56.08;99148.80;1789320;80;25501;-90
2022/05/08 03:13:20;;;;;;;16.57;13.38;;;;;;;20.78;56.11;99146.02;1788900;80;25614;-90
2022/05/08 03:15:47;;;;;;;16.40;12.45;;;;;;;20.79;56.08;99149.61;1789222;80;28213;-90
2022/05/08 03:18:14;;;;;;;15.25;12.35;;;;;;;20.79;56.10;99151.00;1788766;80;25654;-88
2022/05/08 03:20:40;;;;;;;15.35;12.10;;;;;;;20.76;56.15;99150.36;1788967;80;25449;-90
2022/05/08 03:23:06;;;;;;;15.08;12.07;;;;;;;20.77;56.12;99158.34;1789146;80;25726;-90
2022/05/08 03:25:32;;;;;;;18.12;13.98;;;;;;;20.79;56.10;99157.39;1789326;80;25395;-90
2022/05/08 03:27:58;;;;;;;15.08;12.15;;;;;;;20.77;56.11;99155.55;1789095;80;28196;-92
2022/05/08 03:30:25;;;;;;;16.82;12.50;;;;;;;20.77;56.11;99159.73;1789191;80;25193;-90
2022/05/08 03:32:51;;;;;;;15.70;12.60;;;;;;;20.76;56.12;99158.13;1788842;80;25480;-90
2022/05/08 03:35:17;;;;;;;16.50;11.95;;;;;;;20.78;56.14;99168.90;1789241;80;25621;-90
2022/05/08 03:37:43;;;;;;;15.38;12.18;;;;;;;20.77;56.12;99168.09;1789657;80;25433;-90
2022/05/08 03:40:10;;;;;;;16.05;12.43;;;;;;;20.76;56.14;99166.48;1789272;80;27452;-90
2022/05/08 03:42:36;;;;;;;14.83;12.20;;;;;;;20.76;56.15;99165.09;1789110;80;25639;-90
2022/05/08 03:45:02;;;;;;;16.20;12.63;;;;;;;20.77;56.13;99163.09;1789532;80;25536;-92
2022/05/08 03:47:28;;;;;;;14.25;11.88;;;;;;;20.76;56.14;99171.24;1789116;80;25659;-91
2022/05/08 03:49:53;;;;;;;16.05;12.30;;;;;;;20.76;56.14;99173.45;1789195;80;25450;-91
2022/05/08 03:52:19;;;;;;;15.65;12.53;;;;;;;20.76;56.14;99174.02;1789238;80;26801;-90
2022/05/08 03:54:45;;;;;;;15.48;12.68;;;;;;;20.76;56.14;99171.24;1789155;79;25818;-89
2022/05/08 03:57:11;;;;;;;15.75;12.40;;;;;;;20.75;56.14;99187.13;1789292;80;25687;-90
2022/05/08 03:59:37;;;;;;;15.30;12.58;;;;;;;20.75;56.16;99184.34;1789231;79;25872;-90
2022/05/08 04:02:03;;;;;;;15.25;12.05;;;;;;;20.76;56.14;99185.98;1789191;79;25670;-91
2022/05/08 04:04:29;;;;;;;15.75;11.97;;;;;;;20.77;56.11;99188.97;1767510;80;28369;-91
2022/05/08 04:06:55;;;;;;;16.25;12.80;;;;;;;20.79;56.09;99187.21;1746354;82;25701;-91
2022/05/08 04:09:21;;;;;;;16.02;13.40;;;;;;;20.80;56.09;99190.20;1746584;82;25479;-90
2022/05/08 04:11:46;;;;;;;16.75;13.18;;;;;;;20.79;56.09;99195.56;1746436;82;25784;-88
2022/05/08 04:14:12;;;;;;;17.12;13.38;;;;;;;20.78;56.11;99197.53;1746533;82;25584;-88
2022/05/08 04:16:38;;;;;;;19.45;13.32;;;;;;;20.79;56.11;99198.35;1746436;82;27446;-90
2022/05/08 04:19:06;;;;;;;15.65;12.82;;;;;;;20.77;56.13;99194.55;1746478;82;25719;-88
2022/05/08 04:21:32;;;;;;;20.17;13.65;;;;;;;20.76;56.21;99197.12;1746094;82;25720;-87
2022/05/08 04:26:42;;;;;;;16.12;12.58;;;;;;;20.76;56.21;99201.88;1743745;82;25622;-88
2022/05/08 04:29:08;;;;;;;16.35;12.30;;;;;;;20.75;56.20;99208.63;1745256;82;27643;-88
2022/05/08 04:31:34;;;;;;;18.17;13.62;;;;;;;20.77;56.18;99202.90;1744753;82;25788;-89
2022/05/08 04:34:01;;;;;;;16.93;12.93;;;;;;;20.78;56.20;99209.28;1744970;82;25578;-89
2022/05/08 04:36:28;;;;;;;16.57;13.43;;;;;;;20.78;56.21;99211.46;1744687;82;25828;-89
2022/05/08 04:38:53;;;;;;;16.80;13.38;;;;;;;20.78;56.19;99210.67;1744806;82;25172;-88
2022/05/08 04:41:20;;;;;;;16.57;12.85;;;;;;;20.79;56.20;99212.28;1745012;82;28153;-89
2022/05/08 04:43:46;;;;;;;17.17;13.20;;;;;;;20.77;56.22;99212.64;1744100;82;25502;-88
2022/05/08 04:46:12;;;;;;;16.48;12.73;;;;;;;20.79;56.18;99212.28;1742598;82;25872;-88
2022/05/08 04:48:41;;;;;;;17.27;13.15;;;;;;;20.78;56.20;99208.67;1744480;82;26638;-87
2022/05/08 04:51:07;;;;;;;16.55;12.88;;;;;;;20.79;56.22;99214.48;1744542;82;25754;-88
2022/05/08 04:53:33;;;;;;;16.75;13.30;;;;;;;20.78;56.24;99207.89;1744859;82;28361;-88
2022/05/08 04:55:59;;;;;;;17.45;13.32;;;;;;;20.78;56.21;99214.25;1744837;82;25680;-88
2022/05/08 04:58:29;;;;;;;17.75;13.22;;;;;;;20.77;56.26;99211.25;1745010;82;25593;-88
2022/05/08 05:00:58;;;;;;;17.42;13.05;;;;;;;20.77;56.28;99211.83;1744771;82;25728;-87
2022/05/08 05:03:24;;;;;;;17.75;13.28;;;;;;;20.76;56.31;99218.59;1745369;82;25213;-87
2022/05/08 05:05:50;;;;;;;18.60;13.25;;;;;;;20.77;56.30;99218.80;1786314;79;27624;-88
2022/05/08 05:08:18;;;;;;;16.62;13.85;;;;;;;20.79;56.30;99217.84;1789132;79;25722;-90
2022/05/08 05:10:44;;;;;;;17.90;13.38;;;;;;;20.79;56.32;99220.63;1788744;80;25385;-89
2022/05/08 05:13:09;;;;;;;16.62;13.08;;;;;;;20.78;56.33;99221.81;1789117;80;26551;-89
2022/05/08 05:15:36;;;;;;;16.82;13.50;;;;;;;20.77;56.41;99222.39;1789156;80;25406;-90
2022/05/08 05:18:02;;;;;;;16.50;13.22;;;;;;;20.77;56.41;99221.00;1789296;80;27578;-91
2022/05/08 05:20:31;;;;;;;17.55;13.68;;;;;;;20.78;56.42;99222.60;1788673;80;25705;-90
2022/05/08 05:23:01;;;;;;;16.97;13.60;;;;;;;20.77;56.41;99223.78;1788875;80;25615;-88
2022/05/08 05:25:28;;;;;;;15.57;12.93;;;;;;;20.78;56.47;99227.39;1785023;80;26342;-90
2022/05/08 05:27:55;;;;;;;18.20;14.05;;;;;;;20.78;56.43;99232.34;1789133;80;25439;-90
2022/05/08 05:30:21;;;;;;;17.48;13.40;;;;;;;20.78;56.45;99226.78;1789155;80;28270;-89
2022/05/08 05:32:48;;;;;;;16.87;13.55;;;;;;;20.77;56.45;99228.54;1789027;80;25622;-90
2022/05/08 05:35:14;;;;;;;17.73;13.55;;;;;;;20.77;56.45;99229.36;1789106;80;25543;-90
2022/05/08 05:37:41;;;;;;;17.05;12.98;;;;;;;20.77;56.51;99233.53;1789140;80;26675;-88
2022/05/08 05:40:08;;;;;;;16.23;13.35;;;;;;;20.77;56.50;99234.11;1789069;80;25715;-87
2022/05/08 05:42:34;;;;;;;17.60;13.25;;;;;;;20.76;56.53;99233.91;1787959;80;27430;-88
2022/05/08 05:45:00;;;;;;;17.85;13.98;;;;;;;20.77;56.54;99236.89;1785738;80;25869;-90
2022/05/08 05:50:11;;;;;;;17.02;13.22;;;;;;;20.76;56.53;99240.86;1779457;80;25557;-89
2022/05/08 05:52:37;;;;;;;17.48;13.10;;;;;;;20.75;56.60;99242.05;1786570;80;25574;-88
2022/05/08 05:55:06;;;;;;;17.75;13.48;;;;;;;20.74;56.65;99248.20;1788434;80;27434;-90
2022/05/08 05:57:35;;;;;;;15.65;13.13;;;;;;;20.76;56.65;99250.03;1788731;80;25949;-89
2022/05/08 06:00:06;;;;;;;18.48;13.80;;;;;;;20.78;56.63;99251.06;1788648;79;25544;-89
2022/05/08 06:02:32;;;;;;;15.65;12.55;;;;;;;20.78;56.63;99249.67;1788964;80;25672;-90
2022/05/08 06:04:58;;;;;;;16.75;13.22;;;;;;;20.79;56.63;99249.30;1781578;80;25663;-91
2022/05/08 06:07:25;;;;;;;17.10;13.55;;;;;;;20.80;56.63;99244.52;1772447;79;27372;-90
2022/05/08 06:09:51;;;;;;;17.85;13.53;;;;;;;20.82;56.61;99247.75;1772581;81;25679;-90
2022/05/08 06:12:17;;;;;;;16.97;13.38;;;;;;;20.85;56.53;99248.98;1772528;80;25395;-90
2022/05/08 06:14:46;;;;;;;18.17;13.50;;;;;;;20.87;56.47;99249.42;1772538;81;25703;-90
2022/05/08 06:17:12;;;;;;;16.07;13.13;;;;;;;20.87;56.46;99249.42;1772185;80;25429;-90
2022/05/08 06:19:39;;;;;;;15.98;12.30;;;;;;;20.87;56.48;99249.42;1772190;81;27447;-90
2022/05/08 06:22:05;;;;;;;16.32;12.80;;;;;;;20.87;56.49;99250.21;1772590;80;25845;-90
2022/05/08 06:24:31;;;;;;;16.00;13.00;;;;;;;20.88;56.49;99249.63;1771480;80;25548;-88
2022/05/08 06:26:57;;;;;;;17.12;12.85;;;;;;;20.89;56.52;99250.66;1771263;81;25646;-90
2022/05/08 06:29:23;;;;;;;15.85;13.00;;;;;;;20.89;56.55;99252.63;1772848;80;25272;-90
2022/05/08 06:31:51;;;;;;;14.50;11.90;;;;;;;20.90;56.58;99250.90;1772686;81;27357;-90
2022/05/08 06:34:18;;;;;;;16.23;12.45;;;;;;;20.91;56.61;99250.31;1772215;79;25665;-90
2022/05/08 06:36:44;;;;;;;18.23;12.68;;;;;;;20.92;56.61;99254.13;1772662;79;25387;-91
2022/05/08 06:39:11;;;;;;;16.42;12.88;;;;;;;20.96;56.63;99258.38;1758227;81;26306;-91
2022/05/08 06:41:37;;;;;;;15.75;12.35;;;;;;;20.97;56.62;99253.59;1772832;81;25616;-91
2022/05/08 06:44:04;;;;;;;15.15;12.70;;;;;;;20.99;56.61;99263.80;1772644;80;27341;-91
2022/05/08 06:46:32;;;;;;;17.25;13.43;;;;;;;21.00;56.69;99256.46;1772617;81;25621;-90
2022/05/08 06:49:05;;;;;;;16.32;12.63;;;;;;;21.01;56.75;99261.45;1772416;80;25743;-91
2022/05/08 06:51:32;;;;;;;17.45;12.95;;;;;;;21.03;56.78;99254.91;1772373;80;25725;-89
2022/05/08 06:53:58;;;;;;;16.75;13.85;;;;;;;21.05;56.75;99262.31;1772799;80;25586;-89
2022/05/08 06:56:26;;;;;;;17.85;12.98;;;;;;;21.08;56.74;99260.77;1772616;80;27349;-89
2022/05/08 07:01:39;;;;;;;18.02;13.70;;;;;;;21.06;56.85;99260.55;1772276;81;25667;-88
2022/05/08 07:04:09;;;;;;;17.73;13.60;;;;;;;21.06;56.89;99262.52;1772775;80;25846;-87
2022/05/08 07:06:38;;;;;;;16.10;13.48;;;;;;;21.08;56.97;99264.36;1746434;80;25468;-88
2022/05/08 07:09:07;;;;;;;16.42;13.15;;;;;;;21.09;57.00;99264.58;1746431;82;26968;-87
2022/05/08 07:11:33;;;;;;;17.82;13.90;;;;;;;21.11;57.19;99259.45;1746422;82;25764;-88
2022/05/08 07:14:01;;;;;;;17.70;13.85;;;;;;;21.12;57.26;99262.44;1746413;82;25670;-88
2022/05/08 07:16:28;;;;;;;19.77;13.95;;;;;;;21.13;57.42;99257.07;1746493;82;26391;-88
2022/05/08 07:18:54;;;;;;;17.67;13.80;;;;;;;21.15;57.63;99258.09;1747035;82;25604;-88
2022/05/08 07:21:21;;;;;;;16.02;13.38;;;;;;;21.18;57.87;99262.34;1746483;82;27541;-88
2022/05/08 07:23:47;;;;;;;16.75;13.70;;;;;;;21.21;57.99;99264.19;1746472;82;25614;-91
2022/05/08 07:26:14;;;;;;;19.55;13.90;;;;;;;21.24;58.06;99264.84;1746460;82;25536;-89
2022/05/08 07:28:42;;;;;;;16.97;14.18;;;;;;;21.28;58.15;99267.09;1746432;82;26472;-88
2022/05/08 07:31:08;;;;;;;16.65;13.20;;;;;;;21.29;58.28;99265.33;1746442;82;25604;-89
2022/05/08 07:33:39;;;;;;;17.10;13.20;;;;;;;21.35;58.42;99261.63;1746519;82;27328;-88
2022/05/08 07:36:13;;;;;;;16.52;13.00;;;;;;;21.44;58.45;99264.16;1746590;82;25663;-88
2022/05/08 07:38:47;;;;;;;15.32;12.00;;;;;;;21.53;58.43;99266.72;1746320;82;25665;-89
2022/05/08 07:41:16;;;;;;;15.55;12.63;;;;;;;21.62;58.46;99263.05;1746318;82;26378;-88
2022/05/08 07:43:46;;;;;;;17.45;13.13;;;;;;;21.72;58.41;99268.59;1746414;82;25734;-87
2022/05/08 07:46:14;;;;;;;16.20;12.53;;;;;;;21.77;58.38;99268.89;1746743;82;27445;-88
2022/05/08 07:48:41;;;;;;;15.75;12.85;;;;;;;21.82;58.35;99267.19;1745951;82;25493;-88
2022/05/08 07:51:07;;;;;;;17.27;13.22;;;;;;;21.87;58.35;99273.83;1746489;82;25623;-88
2022/05/08 07:53:34;;;;;;;17.35;13.30;;;;;;;21.90;58.34;99268.08;1746574;82;25714;-93
2022/05/08 07:56:01;;;;;;;16.07;13.38;;;;;;;21.93;58.30;99265.34;1746549;82;25414;-92
2022/05/08 07:58:28;;;;;;;15.55;12.63;;;;;;;21.97;58.27;99267.38;1746342;82;27413;-88
2022/05/08 08:00:56;;;;;;;16.82;12.95;;;;;;;22.00;58.16;99269.42;1746380;82;25983;-93
2022/05/08 08:03:25;;;;;;;16.90;13.72;;;;;;;22.02;58.22;99265.67;1744568;82;25667;-89
2022/05/08 08:05:53;;;;;;;16.40;12.90;;;;;;;22.06;58.25;99269.31;1768787;79;25714;-91
2022/05/08 08:08:23;;;;;;;15.50;12.58;;;;;;;22.07;58.18;99268.13;1789187;80;25629;-93
2022/05/08 08:10:49;;;;;;;19.40;12.70;;;;;;;22.10;58.16;99271.55;1788674;79;26896;-92
2022/05/08 08:13:15;;;;;;;17.40;12.85;;;;;;;22.12;58.07;99265.59;1788713;79;26106;-91
2022/05/08 08:15:44;;;;;;;15.25;12.65;;;;;;;22.15;58.04;99269.84;1789162;80;25419;-88
2022/05/08 08:18:10;;;;;;;15.48;12.25;;;;;;;22.16;58.02;99263.65;1788667;79;25596;-88
2022/05/08 08:20:36;;;;;;;15.75;12.40;;;;;;;22.17;57.97;99266.06;1789366;80;25711;-89
2022/05/08 08:23:03;;;;;;;13.38;11.63;;;;;;;22.20;57.98;99270.11;1789276;79;27382;-88
2022/05/08 08:25:30;;;;;;;14.95;12.30;;;;;;;22.21;57.98;99270.89;1788717;79;25595;-85
2022/05/08 08:27:57;;;;;;;13.88;11.95;;;;;;;22.20;57.90;99272.90;1789094;80;25595;-86
2022/05/08 08:30:24;;;;;;;15.65;12.33;;;;;;;22.21;57.79;99273.10;1789092;80;25821;-87
2022/05/08 08:32:50;;;;;;;15.08;12.03;;;;;;;22.22;57.69;99272.52;1789327;80;25552;-88
2022/05/08 08:35:16;;;;;;;15.00;12.78;;;;;;;22.22;57.60;99269.73;1789280;80;27968;-90
2022/05/08 08:37:43;;;;;;;17.50;12.37;;;;;;;22.23;57.47;99272.14;1789011;80;25604;-89
2022/05/08 08:40:11;;;;;;;17.17;12.03;;;;;;;22.25;57.38;99273.94;1789061;79;25679;-90
2022/05/08 08:42:41;;;;;;;14.70;11.43;;;;;;;22.25;57.34;99275.34;1789353;80;25781;-92
2022/05/08 08:48:05;;;;;;;15.53;11.48;;;;;;;22.28;57.35;99270.39;1788829;80;27347;-90
2022/05/08 08:50:33;;;;;;;14.30;12.20;;;;;;;22.30;57.37;99277.81;1787447;79;25489;-88
2022/05/08 08:53:03;;;;;;;15.15;11.93;;;;;;;22.31;57.33;99274.44;1789168;80;25560;-92
2022/05/08 08:55:31;;;;;;;14.73;12.05;;;;;;;22.34;57.33;99278.45;1789134;80;25689;-91
2022/05/08 08:57:58;;;;;;;15.35;11.93;;;;;;;22.34;57.39;99281.24;1788818;80;25440;-91
2022/05/08 09:00:24;;;;;;;16.52;12.30;;;;;;;22.36;57.37;99282.47;1785705;80;27512;-93
2022/05/08 09:02:55;;;;;;;14.85;12.18;;;;;;;22.37;57.43;99277.70;1789110;80;25188;-91
2022/05/08 09:05:27;;;;;;;20.90;13.38;;;;;;;22.38;57.47;99280.11;1785392;79;25472;-89
2022/05/08 09:07:55;;;;;;;15.18;12.00;;;;;;;22.38;57.55;99274.52;1772541;80;26026;-94
2022/05/08 09:10:28;;;;;;;15.48;12.70;;;;;;;22.39;57.68;99278.91;1772461;80;25623;-92
2022/05/08 09:13:03;;;;;;;16.62;13.38;;;;;;;22.40;57.68;99276.33;1772637;80;27459;-91
2022/05/08 09:15:35;;;;;;;16.80;13.55;;;;;;;22.42;57.81;99278.73;1772499;80;25691;-93
2022/05/08 09:18:09;;;;;;;16.48;13.05;;;;;;;22.44;57.94;99276.38;1772542;80;25664;-92
2022/05/08 09:20:51;;;;;;;15.32;13.62;;;;;;;22.45;57.99;99276.58;1772471;80;25681;-92
2022/05/08 09:23:21;;;;;;;17.73;14.18;;;;;;;22.44;58.12;99271.61;1772223;80;25154;-93
2022/05/08 09:26:08;;;;;;;15.63;13.75;;;;;;;22.46;58.24;99275.42;1772527;79;27423;-93
2022/05/08 09:28:42;;;;;;;16.23;14.00;;;;;;;22.48;58.37;99277.22;1771970;80;25426;-93
2022/05/08 09:31:13;;;;;;;16.35;14.03;;;;;;;22.48;58.45;99274.43;1772512;81;25641;-93
2022/05/08 09:33:48;;;;;;;16.25;13.95;;;;;;;22.49;58.56;99276.06;1772688;81;25704;-91
2022/05/08 09:36:25;;;;;;;18.37;14.15;;;;;;;22.49;58.63;99273.27;1772601;80;25407;-92
2022/05/08 09:39:02;;;;;;;16.85;14.55;;;;;;;22.49;58.72;99271.88;1772571;80;27443;-89
2022/05/08 09:41:33;;;;;;;16.42;14.07;;;;;;;22.52;58.91;99274.48;1772418;81;25616;-89
2022/05/08 09:44:12;;;;;;;14.95;13.32;;;;;;;22.56;58.96;99268.34;1771972;80;25449;-89
2022/05/08 09:46:43;;;;;;;15.23;12.90;;;;;;;22.61;59.09;99266.65;1770758;80;26478;-89
2022/05/08 09:49:11;;;;;;;18.30;14.58;;;;;;;22.65;59.09;99259.72;1772297;80;25647;-89
2022/05/08 09:51:39;;;;;;;15.98;14.28;;;;;;;22.73;58.99;99263.37;1772450;81;27458;-89
2022/05/08 09:54:06;;;;;;;16.48;14.23;;;;;;;22.75;58.93;99266.59;1772499;80;25886;-90
2022/05/08 09:56:35;;;;;;;17.35;15.20;;;;;;;22.78;58.92;99258.27;1769286;80;26004;-90
2022/05/08 09:59:01;;;;;;;16.17;14.47;;;;;;;22.80;58.97;99256.48;1772605;80;25750;-89
2022/05/08 10:01:28;;;;;;;17.25;15.05;;;;;;;22.81;58.95;99258.08;1772805;81;25579;-89
2022/05/08 10:03:55;;;;;;;17.48;15.32;;;;;;;22.80;59.02;99251.69;1772679;80;27435;-88
2022/05/08 10:06:23;;;;;;;18.20;15.53;;;;;;;22.78;58.98;99255.47;1772219;79;25635;-89
2022/05/08 10:08:49;;;;;;;17.48;15.45;;;;;;;22.78;58.99;99261.64;1772708;81;25687;-89
2022/05/08 10:14:04;;;;;;;20.95;15.85;;;;;;;22.76;59.01;99255.63;1772363;81;25430;-88
2022/05/08 10:17:03;;;;;;;21.45;16.73;;;;;;;22.73;59.11;99243.23;1772361;81;28395;-89
2022/05/08 10:19:34;;;;;;;20.52;16.30;;;;;;;22.72;59.14;99242.22;1772600;81;25645;-89
2022/05/08 10:22:10;;;;;;;22.65;17.23;;;;;;;22.69;59.19;99240.39;1773010;80;25546;-90
2022/05/08 10:24:42;;;;;;;25.80;17.48;;;;;;;22.65;59.16;99232.57;1772126;80;25567;-89
2022/05/08 10:27:20;;;;;;;24.60;17.37;;;;;;;22.65;59.20;99241.56;1772747;80;25545;-90
2022/05/08 10:29:58;;;;;;;21.97;17.15;;;;;;;22.63;59.25;99229.38;1772700;80;27454;-89
2022/05/08 10:32:36;;;;;;;24.75;17.48;;;;;;;22.61;59.31;99228.12;1772693;80;25750;-88
2022/05/08 10:35:17;;;;;;;24.25;17.65;;;;;;;22.62;59.35;99228.36;1772796;80;25568;-89
2022/05/08 10:37:50;;;;;;;25.50;17.57;;;;;;;22.59;59.48;99227.11;1772625;81;25824;-89
2022/05/08 10:40:28;;;;;;;24.20;18.12;;;;;;;22.59;59.55;99232.70;1771798;79;25632;-89
2022/05/08 10:43:01;;;;;;;24.50;18.67;;;;;;;22.57;59.68;99230.87;1772905;80;28196;-93
2022/05/08 10:45:40;;;;;;;24.00;18.65;;;;;;;22.56;59.74;99229.24;1772586;80;25661;-92
2022/05/08 10:48:12;;;;;;;27.15;19.55;;;;;;;22.55;59.87;99229.85;1772201;80;25463;-93
2022/05/08 10:50:51;;;;;;;25.57;18.70;;;;;;;22.55;59.90;99229.04;1772583;80;26564;-92
2022/05/08 10:53:33;;;;;;;28.07;18.65;;;;;;;22.55;60.00;99221.48;1772421;80;25660;-92
2022/05/08 10:56:09;;;;;;;27.48;18.15;;;;;;;22.53;60.11;99221.05;1772702;80;28098;-93
2022/05/08 10:58:41;;;;;;;22.60;17.75;;;;;;;22.54;60.28;99215.66;1772292;81;25408;-91
2022/05/08 11:01:09;;;;;;;23.98;18.00;;;;;;;22.56;60.36;99213.30;1772555;81;25418;-88
2022/05/08 11:03:37;;;;;;;24.75;16.73;;;;;;;22.62;60.25;99216.58;1772591;80;25777;-89
2022/05/08 11:06:06;;;;;;;22.77;17.82;;;;;;;22.65;60.29;99208.83;1772334;80;25404;-90
2022/05/08 11:08:35;;;;;;;26.20;18.73;;;;;;;22.69;60.34;99206.86;1772366;80;27339;-91
2022/05/08 11:11:10;;;;;;;23.45;18.37;;;;;;;22.72;60.30;99205.31;1769353;81;25682;-90
2022/05/08 11:13:42;;;;;;;22.35;18.00;;;;;;;22.76;60.19;99205.34;1772310;81;25707;-89
2022/05/08 11:16:10;;;;;;;22.48;19.12;;;;;;;22.75;60.13;99205.95;1771383;80;25793;-88
2022/05/08 11:18:38;;;;;;;25.10;19.27;;;;;;;22.75;60.12;99205.95;1772349;80;25629;-89
2022/05/08 11:21:09;;;;;;;23.77;19.25;;;;;;;22.75;60.13;99202.34;1772661;81;27399;-88
2022/05/08 11:23:44;;;;;;;24.32;18.62;;;;;;;22.75;60.10;99200.94;1772585;81;25588;-89
2022/05/08 11:26:13;;;;;;;24.47;19.12;;;;;;;22.74;60.11;99197.95;1772327;81;25692;-88
2022/05/08 11:28:49;;;;;;;23.73;18.75;;;;;;;22.71;60.15;99199.50;1772483;81;26544;-90
2022/05/08 11:31:18;;;;;;;25.57;18.87;;;;;;;22.70;60.19;99197.91;1772607;80;25585;-89
2022/05/08 11:36:34;;;;;;;23.73;18.55;;;;;;;22.68;60.10;99187.70;1772247;81;25640;-90
2022/05/08 11:39:08;;;;;;;23.02;18.25;;;;;;;22.66;60.11;99197.89;1772708;80;25613;-88
2022/05/08 11:41:41;;;;;;;24.65;19.48;;;;;;;22.64;60.10;99191.87;1773049;80;26297;-91
2022/05/08 11:44:21;;;;;;;25.40;18.62;;;;;;;22.63;60.17;99188.06;1772225;80;25410;-89
2022/05/08 11:46:56;;;;;;;24.40;18.90;;;;;;;22.62;60.17;99189.25;1772596;79;25981;-92